Kg Daf — VROG8 — position and weather

sailwx.info

Track history (hours):
 
Tides and Currents Weather Stations Pressure Air Temp Water Temp Dewpoint Dewpoint Depression Visibility Wind Speed Wind Dir Waves Ship Positions

Kg Daf

Last reported at 2017-Sep-20 06:42 UTC. Time now 2017-Sep-21 23:14 UTC.
Position N 34°27' W 122°04'.

Type: Cargo ship. MMSI: 401010000.

Date/timePositionNaut miles runAvg speedWind from/ knotsBaromVisibWave heightAir tempDewpointWater temp
2017-Sep-20 06:42N 34°27' W 122°04'315.6
2017-Sep-20 06:30N 34°27' W 122°01'915.2
2017-Sep-20 05:57N 34°27' W 121°51'715.2
2017-Sep-20 05:30N 34°27' W 121°42'815.5
2017-Sep-20 05:00N 34°27' W 121°33'815.7
2017-Sep-20 04:30N 34°27' W 121°23'815.8
2017-Sep-20 04:00N 34°27' W 121°14'815.5
2017-Sep-20 03:30N 34°27' W 121°04'815.6
2017-Sep-20 03:00N 34°27' W 120°55'612.3
2017-Sep-20 02:30N 34°25' W 120°48'5 9.8
2017-Sep-20 02:01N 34°24' W 120°42'5 9.8
2017-Sep-20 01:31N 34°23' W 120°36'5 9.7
2017-Sep-20 01:00N 34°21' W 120°30'5 9.6
2017-Sep-20 00:29N 34°20' W 120°25'4 9.3
2017-Sep-20 00:00N 34°19' W 120°20'6 9.4
2017-Sep-19 23:25N 34°17' W 120°13'4 9.7
2017-Sep-19 23:00N 34°16' W 120°08'510.0
2017-Sep-19 22:30N 34°15' W 120°03'5 9.9
2017-Sep-19 21:57N 34°14' W 119°56'4 9.8
2017-Sep-19 21:30N 34°13' W 119°51'5 9.7
2017-Sep-19 20:59N 34°11' W 119°45'5 9.9
2017-Sep-19 20:30N 34°10' W 119°40'5 9.9
2017-Sep-19 20:00N 34°09' W 119°34'5 9.6
2017-Sep-19 19:28N 34°07' W 119°28'510.2
2017-Sep-19 18:59N 34°06' W 119°22'814.9
2017-Sep-19 18:27N 34°04' W 119°13'714.9
2017-Sep-19 17:59N 34°00' W 119°06'713.2
2017-Sep-19 17:28N 33°57' W 118°59'611.8
2017-Sep-19 17:00N 33°54' W 118°53'611.9
2017-Sep-19 16:30N 33°51' W 118°47'612.0
2017-Sep-19 16:01N 33°48' W 118°41'612.0
2017-Sep-19 15:31N 33°45' W 118°34'612.0
2017-Sep-19 15:01N 33°42' W 118°28'611.7
2017-Sep-19 14:30N 33°39' W 118°22'510.1
2017-Sep-19 14:00N 33°39' W 118°16'4 8.0
2017-Sep-19 13:30N 33°43' W 118°16'2 4.1
2017-Sep-19 12:54N 33°46' W 118°17'0 0.8
2017-Sep-19 12:29N 33°46' W 118°16'0 0.0
2017-Sep-19 09:11N 33°46' W 118°16'0 0.0
2017-Sep-19 07:44N 33°46' W 118°16'0 0.0
2017-Sep-19 07:29N 33°46' W 118°16'0 0.0
2017-Sep-19 06:59N 33°46' W 118°16'0 0.0
2017-Sep-19 06:29N 33°46' W 118°16'0 0.0
2017-Sep-19 05:59N 33°46' W 118°16'0 0.0
2017-Sep-19 05:26N 33°46' W 118°16'0 0.0
2017-Sep-19 04:59N 33°46' W 118°16'0 0.0
2017-Sep-19 04:26N 33°46' W 118°16'0 0.0
2017-Sep-19 02:32N 33°46' W 118°16'0 0.0
2017-Sep-19 02:29N 33°46' W 118°16'0 0.0
2017-Sep-19 01:23N 33°46' W 118°16'0 0.0
2017-Sep-19 00:53N 33°46' W 118°16'0 0.0
2017-Sep-19 00:29N 33°46' W 118°16'0 0.0
2017-Sep-18 22:38N 33°46' W 118°16'0 0.0
2017-Sep-18 22:29N 33°46' W 118°16'0 0.0
2017-Sep-18 21:53N 33°46' W 118°16'0 0.0
2017-Sep-18 21:29N 33°46' W 118°16'0 0.0
2017-Sep-18 20:44N 33°46' W 118°16'0 0.0
2017-Sep-18 20:17N 33°46' W 118°16'0 0.0
2017-Sep-18 19:53N 33°46' W 118°16'0 0.0
2017-Sep-18 19:26N 33°46' W 118°16'0 0.0
2017-Sep-18 18:59N 33°46' W 118°16'0 0.0
2017-Sep-18 18:29N 33°46' W 118°16'0 0.0
2017-Sep-18 17:59N 33°46' W 118°16'0 0.0
2017-Sep-18 17:29N 33°46' W 118°16'0 0.0
2017-Sep-18 16:59N 33°46' W 118°16'0 0.0
2017-Sep-18 16:29N 33°46' W 118°16'0 0.0
2017-Sep-18 15:59N 33°46' W 118°16'0 0.0
2017-Sep-18 15:29N 33°46' W 118°16'0 0.0
2017-Sep-18 10:50N 33°46' W 118°16'0 0.0
2017-Sep-18 10:29N 33°46' W 118°16'0 0.0
2017-Sep-18 09:56N 33°46' W 118°16'0 0.0
2017-Sep-18 09:26N 33°46' W 118°16'0 0.0
2017-Sep-18 08:44N 33°46' W 118°16'0 0.0
2017-Sep-18 08:26N 33°46' W 118°16'0 0.0
2017-Sep-18 01:02N 33°46' W 118°16'0 0.0
2017-Sep-18 00:41N 33°46' W 118°16'0 0.0
2017-Sep-18 00:14N 33°46' W 118°16'0 0.0
2017-Sep-17 23:44N 33°46' W 118°16'0 0.0
2017-Sep-17 23:20N 33°46' W 118°16'0 0.0
2017-Sep-17 22:59N 33°46' W 118°16'0 0.0
2017-Sep-17 22:26N 33°46' W 118°16'0 0.0
2017-Sep-17 21:59N 33°46' W 118°16'0 0.0
2017-Sep-17 21:23N 33°46' W 118°16'0 0.0
2017-Sep-17 20:59N 33°46' W 118°16'0 0.0
2017-Sep-17 20:26N 33°46' W 118°16'0 0.0
2017-Sep-17 19:56N 33°46' W 118°16'0 0.0
2017-Sep-17 19:26N 33°46' W 118°16'0 0.0
2017-Sep-17 18:59N 33°46' W 118°16'0 0.0
2017-Sep-17 18:29N 33°46' W 118°16'0 0.0
2017-Sep-17 17:50N 33°46' W 118°16'0 0.0
2017-Sep-17 16:44N 33°46' W 118°16'0 0.0
2017-Sep-17 16:14N 33°46' W 118°16'0 0.0
2017-Sep-17 15:56N 33°46' W 118°16'0 0.0
2017-Sep-17 09:20N 33°46' W 118°16'0 0.0
2017-Sep-17 08:59N 33°46' W 118°16'0 0.0
2017-Sep-17 08:26N 33°46' W 118°16'0 0.0
2017-Sep-17 07:59N 33°46' W 118°16'0 0.0
2017-Sep-17 07:29N 33°46' W 118°16'0 0.0
2017-Sep-17 06:59N 33°46' W 118°16'0 0.0
2017-Sep-17 06:26N 33°46' W 118°16'0 0.0
2017-Sep-17 05:50N 33°46' W 118°16'0 0.0
2017-Sep-17 05:29N 33°46' W 118°16'0 0.0
2017-Sep-17 04:59N 33°46' W 118°16'0 0.0
2017-Sep-17 04:29N 33°46' W 118°16'0 0.0
2017-Sep-17 03:50N 33°46' W 118°16'0 0.0
2017-Sep-17 03:29N 33°46' W 118°16'0 0.0
2017-Sep-17 02:59N 33°46' W 118°16'0 0.0
2017-Sep-17 02:29N 33°46' W 118°16'0 0.0
2017-Sep-17 01:59N 33°46' W 118°16'0 0.0
2017-Sep-17 01:29N 33°46' W 118°16'0 0.0
2017-Sep-17 00:56N 33°46' W 118°16'0 0.0
2017-Sep-17 00:05N 33°46' W 118°16'0 0.0
2017-Sep-16 23:53N 33°46' W 118°16'0 0.0
2017-Sep-16 23:14N 33°46' W 118°16'0 0.0
2017-Sep-16 22:56N 33°46' W 118°16'0 0.0
2017-Sep-16 22:29N 33°46' W 118°16'0 0.0
2017-Sep-16 21:56N 33°46' W 118°16'0 0.0
2017-Sep-16 21:17N 33°46' W 118°16'0 0.0
2017-Sep-16 20:44N 33°46' W 118°16'0 0.0
2017-Sep-16 20:26N 33°46' W 118°16'0 0.0
2017-Sep-16 19:56N 33°46' W 118°16'0 0.0
2017-Sep-16 19:23N 33°46' W 118°16'0 0.0
2017-Sep-16 18:59N 33°46' W 118°16'0 0.0
2017-Sep-16 18:29N 33°46' W 118°16'0 0.0
2017-Sep-16 17:38N 33°46' W 118°16'0 0.0
2017-Sep-16 17:11N 33°46' W 118°16'0 0.0
2017-Sep-16 16:44N 33°46' W 118°16'0 0.0
2017-Sep-16 16:26N 33°46' W 118°16'0 0.0
2017-Sep-16 15:56N 33°46' W 118°16'0 0.0
2017-Sep-16 15:26N 33°46' W 118°16'0 0.0
2017-Sep-16 14:38N 33°46' W 118°16'0 0.0
2017-Sep-16 07:47N 33°46' W 118°16'0 0.0
2017-Sep-16 05:47N 33°46' W 118°16'0 0.0
2017-Sep-16 05:17N 33°46' W 118°16'0 0.0
2017-Sep-16 04:53N 33°46' W 118°16'0 0.0
2017-Sep-16 02:53N 33°46' W 118°16'0 0.0
2017-Sep-16 01:35N 33°46' W 118°16'0 0.0
2017-Sep-15 22:17N 33°46' W 118°16'0 0.0
2017-Sep-15 21:41N 33°46' W 118°16'0 0.0
2017-Sep-15 21:29N 33°46' W 118°16'0 0.0
2017-Sep-15 20:47N 33°46' W 118°16'0 0.0
2017-Sep-15 20:29N 33°46' W 118°16'0 0.0
2017-Sep-15 19:47N 33°46' W 118°16'0 0.0
2017-Sep-15 19:29N 33°46' W 118°16'0 0.0
2017-Sep-15 18:59N 33°46' W 118°16'0 0.0
2017-Sep-15 18:29N 33°46' W 118°16'0 0.0
2017-Sep-15 09:05N 33°46' W 118°16'0 0.0
2017-Sep-15 08:53N 33°46' W 118°16'0 0.0
2017-Sep-15 08:26N 33°46' W 118°16'0 0.0
2017-Sep-15 07:56N 33°46' W 118°16'0 0.0
2017-Sep-15 07:29N 33°46' W 118°16'0 0.0
2017-Sep-15 06:59N 33°46' W 118°16'0 0.0
2017-Sep-15 06:29N 33°46' W 118°16'0 0.0
2017-Sep-15 05:59N 33°46' W 118°16'0 0.0
2017-Sep-15 05:26N 33°46' W 118°16'0 0.0
2017-Sep-15 04:56N 33°46' W 118°16'0 0.0
2017-Sep-15 04:26N 33°46' W 118°16'0 0.0
2017-Sep-15 03:59N 33°46' W 118°16'0 0.0
2017-Sep-15 03:29N 33°46' W 118°16'0 0.0
2017-Sep-15 02:59N 33°46' W 118°16'0 0.0
2017-Sep-15 02:29N 33°46' W 118°16'0 0.0
2017-Sep-15 01:59N 33°46' W 118°16'0 0.0
2017-Sep-15 01:29N 33°46' W 118°16'0 0.0
2017-Sep-15 00:59N 33°46' W 118°16'0 0.0
2017-Sep-15 00:20N 33°46' W 118°16'0 0.0
2017-Sep-14 23:56N 33°46' W 118°16'0 0.0
2017-Sep-14 23:17N 33°46' W 118°16'0 0.0
2017-Sep-14 22:59N 33°46' W 118°16'0 0.0
2017-Sep-14 21:41N 33°46' W 118°16'0 0.0
2017-Sep-14 21:29N 33°46' W 118°16'0 0.0
2017-Sep-14 20:58N 33°46' W 118°16'0 0.0
2017-Sep-14 18:38N 33°46' W 118°16'0 0.0
2017-Sep-14 18:26N 33°46' W 118°16'0 0.0
2017-Sep-14 17:59N 33°46' W 118°16'0 0.0
2017-Sep-14 17:17N 33°46' W 118°16'0 0.0
2017-Sep-14 16:47N 33°46' W 118°16'0 0.0
2017-Sep-14 16:29N 33°46' W 118°16'0 0.0
2017-Sep-14 15:59N 33°46' W 118°16'0 0.0
2017-Sep-14 15:17N 33°46' W 118°16'0 0.0
2017-Sep-14 13:41N 33°46' W 118°16'0 0.0
2017-Sep-14 13:26N 33°46' W 118°16'0 0.0
2017-Sep-14 12:53N 33°46' W 118°16'0 0.0
2017-Sep-14 12:29N 33°46' W 118°16'0 0.0
2017-Sep-14 11:56N 33°46' W 118°16'0 0.0
2017-Sep-14 11:29N 33°46' W 118°16'0 0.0
2017-Sep-14 10:59N 33°46' W 118°16'0 0.0
2017-Sep-14 10:29N 33°46' W 118°16'0 0.0
2017-Sep-14 09:53N 33°46' W 118°16'0 0.0
2017-Sep-14 09:20N 33°46' W 118°16'0 0.0
2017-Sep-14 08:59N 33°46' W 118°16'0 0.0
2017-Sep-14 08:29N 33°46' W 118°16'0 0.0
2017-Sep-14 07:59N 33°46' W 118°16'0 0.0
2017-Sep-14 07:26N 33°46' W 118°16'0 0.0
2017-Sep-14 05:56N 33°46' W 118°16'0 0.0
2017-Sep-14 05:25N 33°46' W 118°16'0 0.0
2017-Sep-14 04:58N 33°46' W 118°16'0 0.0
2017-Sep-14 04:22N 33°46' W 118°16'0 0.0
2017-Sep-14 03:59N 33°46' W 118°16'0 0.0
2017-Sep-14 03:14N 33°46' W 118°16'0 0.0
2017-Sep-14 02:58N 33°46' W 118°16'0 0.0
2017-Sep-14 02:26N 33°46' W 118°16'0 0.0
2017-Sep-14 01:58N 33°46' W 118°16'0 0.0
2017-Sep-14 01:29N 33°46' W 118°16'0 0.0
2017-Sep-14 00:59N 33°46' W 118°16'0 0.0
2017-Sep-14 00:29N 33°46' W 118°16'0 0.0
2017-Sep-13 23:59N 33°46' W 118°16'0 0.0
2017-Sep-13 23:28N 33°46' W 118°16'0 0.0
2017-Sep-13 22:58N 33°46' W 118°16'0 0.0
2017-Sep-13 22:29N 33°46' W 118°16'0 0.0
2017-Sep-13 21:59N 33°46' W 118°16'0 0.0
2017-Sep-13 21:28N 33°46' W 118°16'0 0.0
2017-Sep-13 20:58N 33°46' W 118°16'0 0.0
2017-Sep-13 20:28N 33°46' W 118°16'0 0.0
2017-Sep-13 19:58N 33°46' W 118°16'0 0.0
2017-Sep-13 19:28N 33°46' W 118°16'0 0.0
2017-Sep-13 18:52N 33°46' W 118°16'0 0.0
2017-Sep-13 18:28N 33°46' W 118°16'0 0.0
2017-Sep-13 17:52N 33°46' W 118°16'0 0.0
2017-Sep-13 17:28N 33°46' W 118°16'0 0.0
2017-Sep-13 16:59N 33°46' W 118°16'0 0.0
2017-Sep-13 16:29N 33°46' W 118°16'0 0.0
2017-Sep-13 15:59N 33°46' W 118°16'0 0.0
2017-Sep-13 15:28N 33°46' W 118°16'0 0.0
2017-Sep-13 14:58N 33°46' W 118°16'0 0.0
2017-Sep-13 14:28N 33°46' W 118°16'0 0.0
2017-Sep-13 13:35N 33°46' W 118°16'0 0.0
2017-Sep-13 13:29N 33°46' W 118°16'0 0.7
2017-Sep-13 13:00N 33°45' W 118°17'1 2.5
2017-Sep-13 12:30N 33°44' W 118°17'3 5.6
2017-Sep-13 12:00N 33°42' W 118°14'2 4.7
2017-Sep-13 11:30N 33°40' W 118°13'4 7.4
2017-Sep-13 11:00N 33°36' W 118°15'5 9.0
2017-Sep-13 10:30N 33°36' W 118°20'610.8
2017-Sep-13 09:59N 33°39' W 118°26'611.6
2017-Sep-13 09:30N 33°41' W 118°32'611.8
2017-Sep-13 09:00N 33°44' W 118°38'611.8
2017-Sep-13 08:30N 33°47' W 118°44'611.8
2017-Sep-13 08:00N 33°50' W 118°50'611.8
2017-Sep-13 07:30N 33°53' W 118°56'611.9
2017-Sep-13 07:01N 33°56' W 119°03'611.8
2017-Sep-13 06:30N 33°59' W 119°09'611.8
2017-Sep-13 06:00N 34°02' W 119°15'611.9
2017-Sep-13 05:30N 34°03' W 119°22'611.4
2017-Sep-13 05:00N 34°05' W 119°28'510.0
2017-Sep-13 04:30N 34°06' W 119°34'510.1
2017-Sep-13 04:00N 34°08' W 119°40'510.0
2017-Sep-13 03:29N 34°09' W 119°46'5 9.8
2017-Sep-13 02:58N 34°11' W 119°52'510.2
2017-Sep-13 02:30N 34°12' W 119°58'510.1
2017-Sep-13 02:00N 34°13' W 120°04'510.3
2017-Sep-13 01:30N 34°15' W 120°10'510.0
2017-Sep-13 01:00N 34°15' W 120°16'4 6.4
2017-Sep-13 00:27N 34°17' W 120°20'4 9.7
2017-Sep-13 00:00N 34°18' W 120°25'5 9.4
2017-Sep-12 23:30N 34°19' W 120°30'510.0
2017-Sep-12 23:00N 34°21' W 120°36'510.0
2017-Sep-12 22:30N 34°22' W 120°42'510.1
2017-Sep-12 22:00N 34°23' W 120°48'5 9.7
2017-Sep-12 21:28N 34°25' W 120°54'510.1
2017-Sep-12 21:00N 34°26' W 120°59'612.9
2017-Sep-12 20:30N 34°27' W 121°07'612.7
2017-Sep-12 20:00N 34°29' W 121°14'712.8
2017-Sep-12 19:29N 34°30' W 121°22'713.3
2017-Sep-12 18:59N 34°32' W 121°30'813.4
2017-Sep-12 18:23N 34°34' W 121°40'613.5
2017-Sep-12 17:55N 34°35' W 121°47'513.4
2017-Sep-12 17:30N 34°36' W 121°54'713.6
2017-Sep-12 17:00N 34°38' W 122°02'713.7
2017-Sep-12 16:30N 34°39' W 122°10'713.6
2017-Sep-12 16:00N 34°41' W 122°18'713.7
2017-Sep-12 15:30N 34°42' W 122°26'713.5
2017-Sep-12 14:57N 34°44' W 122°35'613.4
2017-Sep-12 14:30N 34°45' W 122°42'713.5
2017-Sep-12 14:00N 34°47' W 122°50'5313.5
2017-Sep-12 10:07N 34°59' W 123°52'413.7
2017-Sep-12 09:48N 34°60' W 123°57'2113.7
2017-Sep-12 08:17N 35°04' W 124°22'413.9
2017-Sep-12 08:00N 35°05' W 124°27'713.8
2017-Sep-12 07:30N 35°07' W 124°35'1713.6
2017-Sep-12 06:13N 35°11' W 124°56'313.8
2017-Sep-12 06:00N 35°11' W 124°59'714.1
2017-Sep-12 05:30N 35°13' W 125°08'5114.7
2017-Sep-12 01:59N 35°27' W 126°09'1120.6
2017-Sep-12 01:26N 35°32' W 126°20'920.7
2017-Sep-12 01:00N 35°37' W 126°30'2317.9
2017-Sep-11 23:44N 35°48' W 126°54'418.1
2017-Sep-11 23:30N 35°50' W 126°59'918.3
2017-Sep-11 23:00N 35°55' W 127°08'17820.4
2017-Sep-11 14:17N 37°23' W 130°20'  
Track history (hours):
 
Tides and Currents Weather Stations Pressure Air Temp Water Temp Dewpoint Dewpoint Depression Visibility Wind Speed Wind Dir Waves Ship Positions

Kg Daf

Last reported at 2017-Sep-20 06:42 UTC. Time now 2017-Sep-21 23:14 UTC.
Position N 34°27' W 122°04'.

Type: Cargo ship. MMSI: 401010000.

Date/timePositionNaut miles runAvg speedWind from/ knotsBaromVisibWave heightAir tempDewpointWater temp
2017-Sep-20 06:42N 34°27' W 122°04'315.6
2017-Sep-20 06:30N 34°27' W 122°01'915.2
2017-Sep-20 05:57N 34°27' W 121°51'715.2
2017-Sep-20 05:30N 34°27' W 121°42'815.5
2017-Sep-20 05:00N 34°27' W 121°33'815.7
2017-Sep-20 04:30N 34°27' W 121°23'815.8
2017-Sep-20 04:00N 34°27' W 121°14'815.5
2017-Sep-20 03:30N 34°27' W 121°04'815.6
2017-Sep-20 03:00N 34°27' W 120°55'612.3
2017-Sep-20 02:30N 34°25' W 120°48'5 9.8
2017-Sep-20 02:01N 34°24' W 120°42'5 9.8
2017-Sep-20 01:31N 34°23' W 120°36'5 9.7
2017-Sep-20 01:00N 34°21' W 120°30'5 9.6
2017-Sep-20 00:29N 34°20' W 120°25'4 9.3
2017-Sep-20 00:00N 34°19' W 120°20'6 9.4
2017-Sep-19 23:25N 34°17' W 120°13'4 9.7
2017-Sep-19 23:00N 34°16' W 120°08'510.0
2017-Sep-19 22:30N 34°15' W 120°03'5 9.9
2017-Sep-19 21:57N 34°14' W 119°56'4 9.8
2017-Sep-19 21:30N 34°13' W 119°51'5 9.7
2017-Sep-19 20:59N 34°11' W 119°45'5 9.9
2017-Sep-19 20:30N 34°10' W 119°40'5 9.9
2017-Sep-19 20:00N 34°09' W 119°34'5 9.6
2017-Sep-19 19:28N 34°07' W 119°28'510.2
2017-Sep-19 18:59N 34°06' W 119°22'814.9
2017-Sep-19 18:27N 34°04' W 119°13'714.9
2017-Sep-19 17:59N 34°00' W 119°06'713.2
2017-Sep-19 17:28N 33°57' W 118°59'611.8
2017-Sep-19 17:00N 33°54' W 118°53'611.9
2017-Sep-19 16:30N 33°51' W 118°47'612.0
2017-Sep-19 16:01N 33°48' W 118°41'612.0
2017-Sep-19 15:31N 33°45' W 118°34'612.0
2017-Sep-19 15:01N 33°42' W 118°28'611.7
2017-Sep-19 14:30N 33°39' W 118°22'510.1
2017-Sep-19 14:00N 33°39' W 118°16'4 8.0
2017-Sep-19 13:30N 33°43' W 118°16'2 4.1
2017-Sep-19 12:54N 33°46' W 118°17'0 0.8
2017-Sep-19 12:29N 33°46' W 118°16'0 0.0
2017-Sep-19 09:11N 33°46' W 118°16'0 0.0
2017-Sep-19 07:44N 33°46' W 118°16'0 0.0
2017-Sep-19 07:29N 33°46' W 118°16'0 0.0
2017-Sep-19 06:59N 33°46' W 118°16'0 0.0
2017-Sep-19 06:29N 33°46' W 118°16'0 0.0
2017-Sep-19 05:59N 33°46' W 118°16'0 0.0
2017-Sep-19 05:26N 33°46' W 118°16'0 0.0
2017-Sep-19 04:59N 33°46' W 118°16'0 0.0
2017-Sep-19 04:26N 33°46' W 118°16'0 0.0
2017-Sep-19 02:32N 33°46' W 118°16'0 0.0
2017-Sep-19 02:29N 33°46' W 118°16'0 0.0
2017-Sep-19 01:23N 33°46' W 118°16'0 0.0
2017-Sep-19 00:53N 33°46' W 118°16'0 0.0
2017-Sep-19 00:29N 33°46' W 118°16'0 0.0
2017-Sep-18 22:38N 33°46' W 118°16'0 0.0
2017-Sep-18 22:29N 33°46' W 118°16'0 0.0
2017-Sep-18 21:53N 33°46' W 118°16'0 0.0
2017-Sep-18 21:29N 33°46' W 118°16'0 0.0
2017-Sep-18 20:44N 33°46' W 118°16'0 0.0
2017-Sep-18 20:17N 33°46' W 118°16'0 0.0
2017-Sep-18 19:53N 33°46' W 118°16'0 0.0
2017-Sep-18 19:26N 33°46' W 118°16'0 0.0
2017-Sep-18 18:59N 33°46' W 118°16'0 0.0
2017-Sep-18 18:29N 33°46' W 118°16'0 0.0
2017-Sep-18 17:59N 33°46' W 118°16'0 0.0
2017-Sep-18 17:29N 33°46' W 118°16'0 0.0
2017-Sep-18 16:59N 33°46' W 118°16'0 0.0
2017-Sep-18 16:29N 33°46' W 118°16'0 0.0
2017-Sep-18 15:59N 33°46' W 118°16'0 0.0
2017-Sep-18 15:29N 33°46' W 118°16'0 0.0
2017-Sep-18 10:50N 33°46' W 118°16'0 0.0
2017-Sep-18 10:29N 33°46' W 118°16'0 0.0
2017-Sep-18 09:56N 33°46' W 118°16'0 0.0
2017-Sep-18 09:26N 33°46' W 118°16'0 0.0
2017-Sep-18 08:44N 33°46' W 118°16'0 0.0
2017-Sep-18 08:26N 33°46' W 118°16'0 0.0
2017-Sep-18 01:02N 33°46' W 118°16'0 0.0
2017-Sep-18 00:41N 33°46' W 118°16'0 0.0
2017-Sep-18 00:14N 33°46' W 118°16'0 0.0
2017-Sep-17 23:44N 33°46' W 118°16'0 0.0
2017-Sep-17 23:20N 33°46' W 118°16'0 0.0
2017-Sep-17 22:59N 33°46' W 118°16'0 0.0
2017-Sep-17 22:26N 33°46' W 118°16'0 0.0
2017-Sep-17 21:59N 33°46' W 118°16'0 0.0
2017-Sep-17 21:23N 33°46' W 118°16'0 0.0
2017-Sep-17 20:59N 33°46' W 118°16'0 0.0
2017-Sep-17 20:26N 33°46' W 118°16'0 0.0
2017-Sep-17 19:56N 33°46' W 118°16'0 0.0
2017-Sep-17 19:26N 33°46' W 118°16'0 0.0
2017-Sep-17 18:59N 33°46' W 118°16'0 0.0
2017-Sep-17 18:29N 33°46' W 118°16'0 0.0
2017-Sep-17 17:50N 33°46' W 118°16'0 0.0
2017-Sep-17 16:44N 33°46' W 118°16'0 0.0
2017-Sep-17 16:14N 33°46' W 118°16'0 0.0
2017-Sep-17 15:56N 33°46' W 118°16'0 0.0
2017-Sep-17 09:20N 33°46' W 118°16'0 0.0
2017-Sep-17 08:59N 33°46' W 118°16'0 0.0
2017-Sep-17 08:26N 33°46' W 118°16'0 0.0
2017-Sep-17 07:59N 33°46' W 118°16'0 0.0
2017-Sep-17 07:29N 33°46' W 118°16'0 0.0
2017-Sep-17 06:59N 33°46' W 118°16'0 0.0
2017-Sep-17 06:26N 33°46' W 118°16'0 0.0
2017-Sep-17 05:50N 33°46' W 118°16'0 0.0
2017-Sep-17 05:29N 33°46' W 118°16'0 0.0
2017-Sep-17 04:59N 33°46' W 118°16'0 0.0
2017-Sep-17 04:29N 33°46' W 118°16'0 0.0
2017-Sep-17 03:50N 33°46' W 118°16'0 0.0
2017-Sep-17 03:29N 33°46' W 118°16'0 0.0
2017-Sep-17 02:59N 33°46' W 118°16'0 0.0
2017-Sep-17 02:29N 33°46' W 118°16'0 0.0
2017-Sep-17 01:59N 33°46' W 118°16'0 0.0
2017-Sep-17 01:29N 33°46' W 118°16'0 0.0
2017-Sep-17 00:56N 33°46' W 118°16'0 0.0
2017-Sep-17 00:05N 33°46' W 118°16'0 0.0
2017-Sep-16 23:53N 33°46' W 118°16'0 0.0
2017-Sep-16 23:14N 33°46' W 118°16'0 0.0
2017-Sep-16 22:56N 33°46' W 118°16'0 0.0
2017-Sep-16 22:29N 33°46' W 118°16'0 0.0
2017-Sep-16 21:56N 33°46' W 118°16'0 0.0
2017-Sep-16 21:17N 33°46' W 118°16'0 0.0
2017-Sep-16 20:44N 33°46' W 118°16'0 0.0
2017-Sep-16 20:26N 33°46' W 118°16'0 0.0
2017-Sep-16 19:56N 33°46' W 118°16'0 0.0
2017-Sep-16 19:23N 33°46' W 118°16'0 0.0
2017-Sep-16 18:59N 33°46' W 118°16'0 0.0
2017-Sep-16 18:29N 33°46' W 118°16'0 0.0
2017-Sep-16 17:38N 33°46' W 118°16'0 0.0
2017-Sep-16 17:11N 33°46' W 118°16'0 0.0
2017-Sep-16 16:44N 33°46' W 118°16'0 0.0
2017-Sep-16 16:26N 33°46' W 118°16'0 0.0
2017-Sep-16 15:56N 33°46' W 118°16'0 0.0
2017-Sep-16 15:26N 33°46' W 118°16'0 0.0
2017-Sep-16 14:38N 33°46' W 118°16'0 0.0
2017-Sep-16 07:47N 33°46' W 118°16'0 0.0
2017-Sep-16 05:47N 33°46' W 118°16'0 0.0
2017-Sep-16 05:17N 33°46' W 118°16'0 0.0
2017-Sep-16 04:53N 33°46' W 118°16'0 0.0
2017-Sep-16 02:53N 33°46' W 118°16'0 0.0
2017-Sep-16 01:35N 33°46' W 118°16'0 0.0
2017-Sep-15 22:17N 33°46' W 118°16'0 0.0
2017-Sep-15 21:41N 33°46' W 118°16'0 0.0
2017-Sep-15 21:29N 33°46' W 118°16'0 0.0
2017-Sep-15 20:47N 33°46' W 118°16'0 0.0
2017-Sep-15 20:29N 33°46' W 118°16'0 0.0
2017-Sep-15 19:47N 33°46' W 118°16'0 0.0
2017-Sep-15 19:29N 33°46' W 118°16'0 0.0
2017-Sep-15 18:59N 33°46' W 118°16'0 0.0
2017-Sep-15 18:29N 33°46' W 118°16'0 0.0
2017-Sep-15 09:05N 33°46' W 118°16'0 0.0
2017-Sep-15 08:53N 33°46' W 118°16'0 0.0
2017-Sep-15 08:26N 33°46' W 118°16'0 0.0
2017-Sep-15 07:56N 33°46' W 118°16'0 0.0
2017-Sep-15 07:29N 33°46' W 118°16'0 0.0
2017-Sep-15 06:59N 33°46' W 118°16'0 0.0
2017-Sep-15 06:29N 33°46' W 118°16'0 0.0
2017-Sep-15 05:59N 33°46' W 118°16'0 0.0
2017-Sep-15 05:26N 33°46' W 118°16'0 0.0
2017-Sep-15 04:56N 33°46' W 118°16'0 0.0
2017-Sep-15 04:26N 33°46' W 118°16'0 0.0
2017-Sep-15 03:59N 33°46' W 118°16'0 0.0
2017-Sep-15 03:29N 33°46' W 118°16'0 0.0
2017-Sep-15 02:59N 33°46' W 118°16'0 0.0
2017-Sep-15 02:29N 33°46' W 118°16'0 0.0
2017-Sep-15 01:59N 33°46' W 118°16'0 0.0
2017-Sep-15 01:29N 33°46' W 118°16'0 0.0
2017-Sep-15 00:59N 33°46' W 118°16'0 0.0
2017-Sep-15 00:20N 33°46' W 118°16'0 0.0
2017-Sep-14 23:56N 33°46' W 118°16'0 0.0
2017-Sep-14 23:17N 33°46' W 118°16'0 0.0
2017-Sep-14 22:59N 33°46' W 118°16'0 0.0
2017-Sep-14 21:41N 33°46' W 118°16'0 0.0
2017-Sep-14 21:29N 33°46' W 118°16'0 0.0
2017-Sep-14 20:58N 33°46' W 118°16'0 0.0
2017-Sep-14 18:38N 33°46' W 118°16'0 0.0
2017-Sep-14 18:26N 33°46' W 118°16'0 0.0
2017-Sep-14 17:59N 33°46' W 118°16'0 0.0
2017-Sep-14 17:17N 33°46' W 118°16'0 0.0
2017-Sep-14 16:47N 33°46' W 118°16'0 0.0
2017-Sep-14 16:29N 33°46' W 118°16'0 0.0
2017-Sep-14 15:59N 33°46' W 118°16'0 0.0
2017-Sep-14 15:17N 33°46' W 118°16'0 0.0
2017-Sep-14 13:41N 33°46' W 118°16'0 0.0
2017-Sep-14 13:26N 33°46' W 118°16'0 0.0
2017-Sep-14 12:53N 33°46' W 118°16'0 0.0
2017-Sep-14 12:29N 33°46' W 118°16'0 0.0
2017-Sep-14 11:56N 33°46' W 118°16'0 0.0
2017-Sep-14 11:29N 33°46' W 118°16'0 0.0
2017-Sep-14 10:59N 33°46' W 118°16'0 0.0
2017-Sep-14 10:29N 33°46' W 118°16'0 0.0
2017-Sep-14 09:53N 33°46' W 118°16'0 0.0
2017-Sep-14 09:20N 33°46' W 118°16'0 0.0
2017-Sep-14 08:59N 33°46' W 118°16'0 0.0
2017-Sep-14 08:29N 33°46' W 118°16'0 0.0
2017-Sep-14 07:59N 33°46' W 118°16'0 0.0
2017-Sep-14 07:26N 33°46' W 118°16'0 0.0
2017-Sep-14 05:56N 33°46' W 118°16'0 0.0
2017-Sep-14 05:25N 33°46' W 118°16'0 0.0
2017-Sep-14 04:58N 33°46' W 118°16'0 0.0
2017-Sep-14 04:22N 33°46' W 118°16'0 0.0
2017-Sep-14 03:59N 33°46' W 118°16'0 0.0
2017-Sep-14 03:14N 33°46' W 118°16'0 0.0
2017-Sep-14 02:58N 33°46' W 118°16'0 0.0
2017-Sep-14 02:26N 33°46' W 118°16'0 0.0
2017-Sep-14 01:58N 33°46' W 118°16'0 0.0
2017-Sep-14 01:29N 33°46' W 118°16'0 0.0
2017-Sep-14 00:59N 33°46' W 118°16'0 0.0
2017-Sep-14 00:29N 33°46' W 118°16'0 0.0
2017-Sep-13 23:59N 33°46' W 118°16'0 0.0
2017-Sep-13 23:28N 33°46' W 118°16'0 0.0
2017-Sep-13 22:58N 33°46' W 118°16'0 0.0
2017-Sep-13 22:29N 33°46' W 118°16'0 0.0
2017-Sep-13 21:59N 33°46' W 118°16'0 0.0
2017-Sep-13 21:28N 33°46' W 118°16'0 0.0
2017-Sep-13 20:58N 33°46' W 118°16'0 0.0
2017-Sep-13 20:28N 33°46' W 118°16'0 0.0
2017-Sep-13 19:58N 33°46' W 118°16'0 0.0
2017-Sep-13 19:28N 33°46' W 118°16'0 0.0
2017-Sep-13 18:52N 33°46' W 118°16'0 0.0
2017-Sep-13 18:28N 33°46' W 118°16'0 0.0
2017-Sep-13 17:52N 33°46' W 118°16'0 0.0
2017-Sep-13 17:28N 33°46' W 118°16'0 0.0
2017-Sep-13 16:59N 33°46' W 118°16'0 0.0
2017-Sep-13 16:29N 33°46' W 118°16'0 0.0
2017-Sep-13 15:59N 33°46' W 118°16'0 0.0
2017-Sep-13 15:28N 33°46' W 118°16'0 0.0
2017-Sep-13 14:58N 33°46' W 118°16'0 0.0
2017-Sep-13 14:28N 33°46' W 118°16'0 0.0
2017-Sep-13 13:35N 33°46' W 118°16'0 0.0
2017-Sep-13 13:29N 33°46' W 118°16'0 0.7
2017-Sep-13 13:00N 33°45' W 118°17'1 2.5
2017-Sep-13 12:30N 33°44' W 118°17'3 5.6
2017-Sep-13 12:00N 33°42' W 118°14'2 4.7
2017-Sep-13 11:30N 33°40' W 118°13'4 7.4
2017-Sep-13 11:00N 33°36' W 118°15'5 9.0
2017-Sep-13 10:30N 33°36' W 118°20'610.8
2017-Sep-13 09:59N 33°39' W 118°26'611.6
2017-Sep-13 09:30N 33°41' W 118°32'611.8
2017-Sep-13 09:00N 33°44' W 118°38'611.8
2017-Sep-13 08:30N 33°47' W 118°44'611.8
2017-Sep-13 08:00N 33°50' W 118°50'611.8
2017-Sep-13 07:30N 33°53' W 118°56'611.9
2017-Sep-13 07:01N 33°56' W 119°03'611.8
2017-Sep-13 06:30N 33°59' W 119°09'611.8
2017-Sep-13 06:00N 34°02' W 119°15'611.9
2017-Sep-13 05:30N 34°03' W 119°22'611.4
2017-Sep-13 05:00N 34°05' W 119°28'510.0
2017-Sep-13 04:30N 34°06' W 119°34'510.1
2017-Sep-13 04:00N 34°08' W 119°40'510.0
2017-Sep-13 03:29N 34°09' W 119°46'5 9.8
2017-Sep-13 02:58N 34°11' W 119°52'510.2
2017-Sep-13 02:30N 34°12' W 119°58'510.1
2017-Sep-13 02:00N 34°13' W 120°04'510.3
2017-Sep-13 01:30N 34°15' W 120°10'510.0
2017-Sep-13 01:00N 34°15' W 120°16'4 6.4
2017-Sep-13 00:27N 34°17' W 120°20'4 9.7
2017-Sep-13 00:00N 34°18' W 120°25'5 9.4
2017-Sep-12 23:30N 34°19' W 120°30'510.0
2017-Sep-12 23:00N 34°21' W 120°36'510.0
2017-Sep-12 22:30N 34°22' W 120°42'510.1
2017-Sep-12 22:00N 34°23' W 120°48'5 9.7
2017-Sep-12 21:28N 34°25' W 120°54'510.1
2017-Sep-12 21:00N 34°26' W 120°59'612.9
2017-Sep-12 20:30N 34°27' W 121°07'612.7
2017-Sep-12 20:00N 34°29' W 121°14'712.8
2017-Sep-12 19:29N 34°30' W 121°22'713.3
2017-Sep-12 18:59N 34°32' W 121°30'813.4
2017-Sep-12 18:23N 34°34' W 121°40'613.5
2017-Sep-12 17:55N 34°35' W 121°47'513.4
2017-Sep-12 17:30N 34°36' W 121°54'713.6
2017-Sep-12 17:00N 34°38' W 122°02'713.7
2017-Sep-12 16:30N 34°39' W 122°10'713.6
2017-Sep-12 16:00N 34°41' W 122°18'713.7
2017-Sep-12 15:30N 34°42' W 122°26'713.5
2017-Sep-12 14:57N 34°44' W 122°35'613.4
2017-Sep-12 14:30N 34°45' W 122°42'713.5
2017-Sep-12 14:00N 34°47' W 122°50'5313.5
2017-Sep-12 10:07N 34°59' W 123°52'413.7
2017-Sep-12 09:48N 34°60' W 123°57'2113.7
2017-Sep-12 08:17N 35°04' W 124°22'413.9
2017-Sep-12 08:00N 35°05' W 124°27'713.8
2017-Sep-12 07:30N 35°07' W 124°35'1713.6
2017-Sep-12 06:13N 35°11' W 124°56'313.8
2017-Sep-12 06:00N 35°11' W 124°59'714.1
2017-Sep-12 05:30N 35°13' W 125°08'5114.7
2017-Sep-12 01:59N 35°27' W 126°09'1120.6
2017-Sep-12 01:26N 35°32' W 126°20'920.7
2017-Sep-12 01:00N 35°37' W 126°30'2317.9
2017-Sep-11 23:44N 35°48' W 126°54'418.1
2017-Sep-11 23:30N 35°50' W 126°59'918.3
2017-Sep-11 23:00N 35°55' W 127°08'17820.4
2017-Sep-11 14:17N 37°23' W 130°20'  

Dump ship's entire track history